Time;durP1;ratioP1;P1;durP2;ratioP2;P2;SDS_P1;SDS_P2;PMS_P1;PMS_P2;Temp;Humidity;BMP_temperature;BMP_pressure;BME280_temperature;BME280_humidity;BME280_pressure;Samples;Min_cycle;Max_cycle;Signal;HPM_P1;HPM_P2
2024/01/18 00:00:58;;;;;;;1.00;0.50;;;;;;;6.90;100.00;94260.47;4984389;28;20125;-73
2024/01/18 00:03:24;;;;;;;1.00;0.50;;;;;;;6.94;100.00;94253.06;4978243;28;20046;-73
2024/01/18 00:05:49;;;;;;;0.70;0.60;;;;;;;7.00;100.00;94247.94;4983345;28;20129;-72
2024/01/18 00:08:15;;;;;;;1.13;1.02;;;;;;;6.98;100.00;94242.91;4977658;28;20113;-72
2024/01/18 00:10:40;;;;;;;0.88;0.80;;;;;;;6.95;100.00;94241.00;4982571;28;20097;-73
2024/01/18 00:13:05;;;;;;;1.00;0.90;;;;;;;6.91;100.00;94245.69;4977834;28;20547;-73
2024/01/18 00:15:31;;;;;;;0.70;0.70;;;;;;;6.87;100.00;94242.22;4982395;28;20069;-72
2024/01/18 00:17:56;;;;;;;0.90;0.80;;;;;;;6.85;100.00;94250.03;4982548;28;20492;-72
2024/01/18 00:20:24;;;;;;;0.70;0.70;;;;;;;6.94;100.00;94249.56;4981867;28;20604;-73
2024/01/18 00:22:49;;;;;;;0.50;0.50;;;;;;;6.89;100.00;94248.03;4967321;28;20061;-72
2024/01/18 00:25:15;;;;;;;0.60;0.60;;;;;;;6.87;100.00;94242.22;4977773;28;20461;-72
2024/01/18 00:27:41;;;;;;;1.25;0.50;;;;;;;6.88;100.00;94243.78;4982234;28;20050;-73
2024/01/18 00:30:07;;;;;;;0.60;0.57;;;;;;;6.89;100.00;94239.88;4959394;28;20040;-73
2024/01/18 00:32:32;;;;;;;0.40;0.40;;;;;;;6.89;100.00;94248.03;4981190;28;20046;-72
2024/01/18 00:34:57;;;;;;;0.50;0.50;;;;;;;6.85;100.00;94247.31;4980570;28;20089;-72
2024/01/18 00:37:23;;;;;;;1.20;0.60;;;;;;;6.88;100.00;94257.41;4977795;28;20494;-72
2024/01/18 00:39:48;;;;;;;0.60;0.60;;;;;;;6.98;100.00;94248.34;4982306;28;20034;-73
2024/01/18 00:42:14;;;;;;;1.60;0.90;;;;;;;7.00;100.00;94256.09;4979965;28;20077;-73
2024/01/18 00:44:39;;;;;;;0.98;0.80;;;;;;;6.91;100.00;94258.53;4991290;28;20042;-72
2024/01/18 00:47:04;;;;;;;0.70;0.70;;;;;;;6.86;100.00;94252.34;4988320;28;20052;-75
2024/01/18 00:49:30;;;;;;;0.63;0.63;;;;;;;6.91;100.00;94258.53;4968724;28;20053;-73
2024/01/18 00:51:55;;;;;;;2.58;1.00;;;;;;;7.02;100.00;94257.28;4984975;28;20090;-72
2024/01/18 00:54:21;;;;;;;0.60;0.60;;;;;;;7.15;100.00;94251.28;4975817;28;21426;-72
2024/01/18 00:56:46;;;;;;;0.70;0.70;;;;;;;7.16;100.00;94244.69;4980399;28;20050;-73
2024/01/18 00:59:12;;;;;;;2.40;1.02;;;;;;;7.15;100.00;94251.28;4976508;28;20038;-72
2024/01/18 01:01:37;;;;;;;0.70;0.70;;;;;;;7.07;100.00;94253.31;4981851;28;20097;-72
2024/01/18 01:04:03;;;;;;;0.50;0.50;;;;;;;6.96;100.00;94253.41;4978607;28;20038;-72
2024/01/18 01:06:28;;;;;;;0.68;0.57;;;;;;;6.91;100.00;94256.56;4961199;28;20053;-72
2024/01/18 01:08:53;;;;;;;0.50;0.50;;;;;;;6.85;100.00;94252.75;4979968;28;20612;-72
2024/01/18 01:11:20;;;;;;;0.90;0.50;;;;;;;6.88;100.00;94254.69;4976102;28;20474;-72
2024/01/18 01:13:45;;;;;;;0.63;0.60;;;;;;;6.88;100.00;94251.94;4955894;28;20134;-72
2024/01/18 01:16:11;;;;;;;6.70;0.70;;;;;;;6.93;100.00;94248.78;4976678;28;20080;-72
2024/01/18 01:18:37;;;;;;;0.57;0.50;;;;;;;7.06;100.00;94249.06;4980716;28;20197;-72
2024/01/18 01:21:05;;;;;;;0.47;0.47;;;;;;;7.05;100.00;94250.22;4962543;28;20133;-72
2024/01/18 01:23:31;;;;;;;0.90;0.68;;;;;;;7.00;100.00;94248.72;4980370;28;20046;-72
2024/01/18 01:25:56;;;;;;;2.28;0.85;;;;;;;6.97;100.00;94254.19;4980418;28;20061;-72
2024/01/18 01:28:22;;;;;;;0.60;0.43;;;;;;;6.94;100.00;94258.50;4976030;28;20513;-71
2024/01/18 01:30:47;;;;;;;0.60;0.60;;;;;;;7.08;100.00;94249.44;4964022;28;20120;-72
2024/01/18 01:33:13;;;;;;;1.50;0.57;;;;;;;7.04;100.00;94251.41;4976519;28;20042;-72
2024/01/18 01:35:38;;;;;;;0.50;0.50;;;;;;;7.14;100.00;94249.75;4979274;28;20038;-72
2024/01/18 01:38:04;;;;;;;1.55;0.68;;;;;;;7.28;100.00;94246.91;4977103;28;20142;-72
2024/01/18 01:40:29;;;;;;;3.50;0.68;;;;;;;7.21;100.00;94245.00;4983207;28;20064;-72
2024/01/18 01:42:54;;;;;;;13.85;3.17;;;;;;;7.20;100.00;94251.66;4975933;28;20042;-71
2024/01/18 01:45:20;;;;;;;5.28;1.38;;;;;;;7.15;100.00;94252.09;4975942;28;20069;-72
2024/01/18 01:47:45;;;;;;;0.57;0.50;;;;;;;7.01;100.00;94253.00;4976856;28;20058;-72
2024/01/18 01:50:11;;;;;;;1.30;0.85;;;;;;;6.84;100.00;94252.00;4975223;28;20045;-72
2024/01/18 01:52:38;;;;;;;2.10;1.80;;;;;;;6.69;100.00;94256.75;4981040;28;20096;-72
2024/01/18 01:55:07;;;;;;;1.30;1.20;;;;;;;6.61;100.00;94259.91;4974714;28;20046;-74
2024/01/18 01:57:33;;;;;;;0.88;0.75;;;;;;;6.57;100.00;94259.19;4976341;28;20184;-72
2024/01/18 01:59:59;;;;;;;0.60;0.60;;;;;;;6.42;100.00;94262.00;4981762;28;20454;-71
2024/01/18 02:02:25;;;;;;;1.10;0.68;;;;;;;6.30;100.00;94260.53;4974525;28;20125;-71
2024/01/18 02:04:52;;;;;;;1.95;0.65;;;;;;;6.24;100.00;94267.56;4980539;28;20104;-72
2024/01/18 02:07:19;;;;;;;0.80;0.60;;;;;;;6.24;100.00;94272.22;4976093;28;20037;-72
2024/01/18 02:09:46;;;;;;;1.17;0.98;;;;;;;6.28;100.00;94275.69;4980170;28;20109;-75
2024/01/18 02:12:12;;;;;;;1.23;1.13;;;;;;;6.18;100.00;94273.84;4979350;28;20112;-71
2024/01/18 02:14:37;;;;;;;1.80;0.80;;;;;;;6.21;100.00;94275.72;4983363;28;20541;-74
2024/01/18 02:17:04;;;;;;;1.30;0.80;;;;;;;6.21;100.00;94267.59;4959808;28;20095;-75
2024/01/18 02:19:30;;;;;;;1.60;1.10;;;;;;;6.25;100.00;94262.91;4981062;28;20038;-73
2024/01/18 02:21:57;;;;;;;0.70;0.70;;;;;;;6.15;100.00;94263.75;4980211;28;20045;-73
2024/01/18 02:24:32;;;;;;;1.38;0.80;;;;;;;6.26;100.00;94272.59;4975655;28;20137;-73
2024/01/18 02:26:58;;;;;;;3.20;1.20;;;;;;;6.19;100.00;94261.78;4981446;28;20405;-73
2024/01/18 02:29:23;;;;;;;1.38;0.80;;;;;;;6.24;100.00;94261.34;4976540;28;20156;-73
2024/01/18 02:31:49;;;;;;;1.30;0.90;;;;;;;6.23;100.00;94263.31;4980176;28;20050;-73
2024/01/18 02:34:16;;;;;;;1.15;0.88;;;;;;;6.18;100.00;94260.25;4974774;28;20034;-74
2024/01/18 02:36:42;;;;;;;0.98;0.68;;;;;;;6.09;100.00;94268.81;4980677;28;20070;-73
2024/01/18 02:39:08;;;;;;;1.33;1.10;;;;;;;5.99;100.00;94267.69;4975935;28;20034;-74
2024/01/18 02:41:33;;;;;;;2.28;1.00;;;;;;;6.00;100.00;94268.50;4975012;28;20510;-73
2024/01/18 02:44:00;;;;;;;1.88;1.40;;;;;;;5.93;100.00;94261.88;4979333;28;20096;-74
2024/01/18 02:46:29;;;;;;;0.80;0.80;;;;;;;5.92;100.00;94260.34;4976265;28;20050;-74
2024/01/18 02:48:55;;;;;;;1.50;1.10;;;;;;;5.93;100.00;94255.69;4977622;28;20045;-74
2024/01/18 02:51:20;;;;;;;1.23;0.70;;;;;;;5.85;100.00;94252.22;4975324;28;20586;-72
2024/01/18 02:53:45;;;;;;;1.02;0.80;;;;;;;5.85;100.00;94254.16;4980199;28;20101;-73
2024/01/18 02:56:11;;;;;;;0.90;0.90;;;;;;;5.85;100.00;94251.44;4976754;28;20046;-72
2024/01/18 02:58:36;;;;;;;1.05;0.90;;;;;;;5.77;100.00;94258.84;4994429;28;20050;-73
2024/01/18 03:01:02;;;;;;;1.13;0.80;;;;;;;5.63;100.00;94256.19;4994349;28;20166;-73
2024/01/18 03:03:27;;;;;;;1.17;1.08;;;;;;;5.47;100.00;94265.56;4960561;28;20438;-71
2024/01/18 03:05:52;;;;;;;1.20;0.90;;;;;;;5.32;100.00;94264.06;4979355;28;20042;-74
2024/01/18 03:08:18;;;;;;;1.42;1.20;;;;;;;5.26;100.00;94260.97;4975340;28;20121;-72
2024/01/18 03:10:43;;;;;;;1.00;0.90;;;;;;;5.35;100.00;94261.34;4980753;28;20702;-73
2024/01/18 03:13:09;;;;;;;1.27;1.10;;;;;;;5.39;100.00;94255.13;4974625;28;20153;-74
2024/01/18 03:15:34;;;;;;;1.10;1.00;;;;;;;5.40;100.00;94259.38;4976196;28;20054;-73
2024/01/18 03:17:59;;;;;;;22.30;12.25;;;;;;;5.44;100.00;94265.56;4980796;28;20400;-74
2024/01/18 03:20:25;;;;;;;5.97;3.22;;;;;;;5.37;100.00;94271.81;4979601;28;20043;-76
2024/01/18 03:22:51;;;;;;;3.53;1.45;;;;;;;5.30;100.00;94256.31;4989407;28;20093;-75
2024/01/18 03:25:16;;;;;;;1.15;0.98;;;;;;;5.23;100.00;94253.63;4988527;28;20078;-74
2024/01/18 03:27:42;;;;;;;1.77;1.40;;;;;;;5.14;100.00;94251.31;4994111;28;20054;-75
2024/01/18 03:30:07;;;;;;;1.23;0.98;;;;;;;5.22;100.00;94262.13;4986044;28;20086;-75
2024/01/18 03:32:33;;;;;;;1.65;1.15;;;;;;;5.16;100.00;94265.25;4984984;28;20038;-74
2024/01/18 03:34:59;;;;;;;1.83;1.20;;;;;;;5.20;100.00;94262.53;4986433;28;20047;-73
2024/01/18 03:37:24;;;;;;;0.80;0.80;;;;;;;5.27;100.00;94262.50;4975694;28;20469;-75
2024/01/18 03:39:50;;;;;;;1.70;1.13;;;;;;;5.45;100.00;94254.31;4979670;28;20392;-75
2024/01/18 03:42:15;;;;;;;1.55;0.90;;;;;;;5.51;100.00;94257.41;4969334;28;20455;-74
2024/01/18 03:44:40;;;;;;;2.20;1.17;;;;;;;5.52;100.00;94245.38;4978229;28;20038;-74
2024/01/18 03:47:06;;;;;;;1.50;1.08;;;;;;;5.48;100.00;94252.78;4975952;28;20125;-73
2024/01/18 03:49:31;;;;;;;1.42;0.98;;;;;;;5.50;100.00;94245.78;4975635;28;20397;-73
2024/01/18 03:51:57;;;;;;;1.13;0.95;;;;;;;5.55;100.00;94244.59;4980618;28;20597;-72
2024/01/18 03:54:22;;;;;;;1.65;1.27;;;;;;;5.52;100.00;94239.94;4956750;28;20268;-72
2024/01/18 03:56:48;;;;;;;1.38;1.00;;;;;;;5.48;100.00;94237.25;4977958;28;20525;-74
2024/01/18 03:59:14;;;;;;;1.75;1.10;;;;;;;5.47;100.00;94224.06;4974957;28;20477;-73
2024/01/18 04:01:40;;;;;;;1.25;1.02;;;;;;;5.46;100.00;94236.09;4979384;28;20056;-73
2024/01/18 04:04:05;;;;;;;1.02;0.93;;;;;;;5.38;100.00;94229.16;4974615;28;20050;-74
2024/01/18 04:06:31;;;;;;;4.60;1.88;;;;;;;5.36;100.00;94234.97;4994525;28;20048;-74
2024/01/18 04:08:56;;;;;;;3.05;1.20;;;;;;;5.29;100.00;94229.56;4982049;28;20038;-74
2024/01/18 04:11:22;;;;;;;2.22;2.03;;;;;;;5.26;100.00;94224.94;4977516;28;20050;-72
2024/01/18 04:13:48;;;;;;;2.65;1.90;;;;;;;5.26;100.00;94222.97;4966091;28;20046;-71
2024/01/18 04:16:13;;;;;;;2.58;1.27;;;;;;;5.23;100.00;94225.72;4960897;28;20125;-72
2024/01/18 04:18:39;;;;;;;2.90;1.50;;;;;;;5.25;100.00;94229.56;4983195;28;20072;-73
2024/01/18 04:21:04;;;;;;;1.63;1.02;;;;;;;5.19;100.00;94224.94;4980293;28;20101;-75
2024/01/18 04:23:30;;;;;;;1.15;1.00;;;;;;;5.06;100.00;94213.72;4982784;28;20112;-73
2024/01/18 04:25:55;;;;;;;3.20;1.50;;;;;;;4.98;100.00;94216.44;4981412;28;20129;-72
2024/01/18 04:28:21;;;;;;;2.83;2.22;;;;;;;4.96;100.00;94226.91;4979472;28;20051;-72
2024/01/18 04:30:47;;;;;;;2.22;1.50;;;;;;;4.71;100.00;94213.41;4983913;28;20046;-74
2024/01/18 04:33:13;;;;;;;64.32;3.17;;;;;;;4.45;100.00;94211.88;4977955;28;20494;-74
2024/01/18 04:35:39;;;;;;;2.03;1.33;;;;;;;4.56;100.00;94228.16;4984992;28;20389;-74
2024/01/18 04:38:06;;;;;;;5.95;3.75;;;;;;;4.51;100.00;94215.75;4978090;28;20493;-74
2024/01/18 04:40:33;;;;;;;1.55;1.20;;;;;;;4.58;100.00;94212.25;4983806;28;20093;-73
2024/01/18 04:42:58;;;;;;;1.88;1.50;;;;;;;4.68;100.00;94216.13;4976866;28;20042;-73
2024/01/18 04:45:24;;;;;;;1.75;1.10;;;;;;;4.90;100.00;94206.78;4977689;28;20045;-73
2024/01/18 04:47:52;;;;;;;1.70;1.20;;;;;;;4.99;100.00;94203.69;4981538;28;20489;-73
2024/01/18 04:50:20;;;;;;;3.00;1.20;;;;;;;5.02;100.00;94188.53;4969426;28;20433;-73
2024/01/18 04:52:47;;;;;;;3.78;1.55;;;;;;;5.04;100.00;94206.00;4983701;28;20088;-73
2024/01/18 04:55:12;;;;;;;3.40;1.88;;;;;;;5.06;100.00;94200.94;4978150;28;20133;-73
2024/01/18 04:57:39;;;;;;;4.80;1.60;;;;;;;5.08;100.00;94211.41;4982192;28;20056;-73
2024/01/18 05:00:10;;;;;;;1.90;1.23;;;;;;;5.09;100.00;94208.28;4976121;28;20097;-73
2024/01/18 05:02:36;;;;;;;1.83;1.30;;;;;;;5.05;100.00;94212.97;4981421;28;20041;-72
2024/01/18 05:05:02;;;;;;;3.50;1.80;;;;;;;5.03;100.00;94204.44;4982804;28;20485;-73
2024/01/18 05:07:27;;;;;;;2.78;1.90;;;;;;;5.08;100.00;94206.00;4977801;28;20048;-73
2024/01/18 05:09:53;;;;;;;2.88;2.20;;;;;;;5.17;100.00;94206.34;4982469;28;20109;-73
2024/01/18 05:12:18;;;;;;;2.78;2.30;;;;;;;5.17;100.00;94195.50;4979800;28;20567;-73
2024/01/18 05:14:43;;;;;;;2.88;1.83;;;;;;;5.13;100.00;94198.22;4985947;28;20054;-73
2024/01/18 05:17:10;;;;;;;2.90;2.00;;;;;;;5.08;100.00;94206.75;4973694;28;20133;-73
2024/01/18 05:19:36;;;;;;;3.00;2.30;;;;;;;5.06;100.00;94200.16;4980126;28;20634;-73
2024/01/18 05:22:02;;;;;;;3.55;2.67;;;;;;;5.04;100.00;94191.63;4963517;28;20052;-74
2024/01/18 05:24:27;;;;;;;5.72;2.47;;;;;;;5.02;100.00;94191.25;4961401;28;20433;-73
2024/01/18 05:26:53;;;;;;;3.58;2.10;;;;;;;5.03;100.00;94180.03;4980360;28;20081;-72
2024/01/18 05:29:19;;;;;;;3.15;1.77;;;;;;;5.09;100.00;94185.81;4978692;28;20767;-73
2024/01/18 05:31:45;;;;;;;2.72;1.92;;;;;;;5.03;100.00;94177.31;4980086;28;20050;-73
2024/01/18 05:34:10;;;;;;;2.38;1.90;;;;;;;4.94;100.00;94177.72;4976793;28;20046;-73
2024/01/18 05:36:36;;;;;;;3.10;2.38;;;;;;;4.91;100.00;94172.31;4979946;28;20053;-73
2024/01/18 05:39:02;;;;;;;6.32;4.50;;;;;;;4.75;100.00;94175.44;4980870;28;20057;-73
2024/01/18 05:41:28;;;;;;;6.97;3.65;;;;;;;4.72;100.00;94179.72;4976478;28;20129;-72
2024/01/18 05:43:53;;;;;;;5.30;3.20;;;;;;;4.72;100.00;94178.94;4980475;28;20133;-73
2024/01/18 05:46:18;;;;;;;5.55;3.35;;;;;;;4.70;100.00;94183.97;4974551;28;20042;-73
2024/01/18 05:48:44;;;;;;;4.63;3.08;;;;;;;4.42;100.00;94190.19;4980528;28;20046;-72
2024/01/18 05:51:09;;;;;;;5.03;3.22;;;;;;;4.36;100.00;94195.25;4977092;28;20132;-72
2024/01/18 05:53:35;;;;;;;4.95;3.30;;;;;;;4.35;100.00;94199.88;4980849;28;20038;-72
2024/01/18 05:56:00;;;;;;;5.35;3.47;;;;;;;4.33;100.00;94199.47;4979599;28;20069;-72
2024/01/18 05:58:26;;;;;;;4.72;3.42;;;;;;;4.38;100.00;94206.47;4982380;28;20042;-73
2024/01/18 06:00:52;;;;;;;5.65;3.85;;;;;;;4.43;100.00;94211.50;4984988;28;20072;-73
2024/01/18 06:03:18;;;;;;;4.90;3.85;;;;;;;4.52;100.00;94219.22;4982525;28;20446;-72
2024/01/18 06:05:43;;;;;;;5.40;3.10;;;;;;;4.63;100.00;94214.59;4990415;28;20042;-73
2024/01/18 06:08:09;;;;;;;9.80;4.35;;;;;;;4.70;100.00;94220.00;4980887;28;20046;-72
2024/01/18 06:10:34;;;;;;;8.88;4.35;;;;;;;4.73;100.00;94227.34;4982442;28;20049;-73
2024/01/18 06:13:00;;;;;;;5.47;3.85;;;;;;;4.71;100.00;94228.91;4981345;28;20046;-74
2024/01/18 06:15:25;;;;;;;8.38;4.57;;;;;;;4.67;100.00;94225.44;4976675;28;20046;-74
2024/01/18 06:17:50;;;;;;;8.73;4.40;;;;;;;4.66;100.00;94223.88;4979513;28;20039;-73
2024/01/18 06:20:16;;;;;;;9.70;5.20;;;;;;;4.62;100.00;94225.81;4978506;28;20038;-74
2024/01/18 06:22:41;;;;;;;7.18;3.55;;;;;;;4.60;100.00;94224.25;4981373;28;20043;-74
2024/01/18 06:25:07;;;;;;;6.20;4.13;;;;;;;4.48;100.00;94216.50;4976013;28;20171;-74
2024/01/18 06:27:33;;;;;;;3.50;3.10;;;;;;;4.46;100.00;94223.50;4979515;28;20143;-72
2024/01/18 06:29:59;;;;;;;7.32;3.65;;;;;;;4.49;100.00;94222.72;4992246;28;20050;-71
2024/01/18 06:32:25;;;;;;;5.95;3.78;;;;;;;4.63;100.00;94232.75;4972622;28;20065;-77
2024/01/18 06:34:51;;;;;;;4.60;3.40;;;;;;;4.65;100.00;94230.47;4981010;28;20045;-71
2024/01/18 06:37:16;;;;;;;10.18;5.00;;;;;;;4.70;100.00;94244.41;4956952;28;20073;-72
2024/01/18 06:39:42;;;;;;;14.88;7.82;;;;;;;4.90;100.00;94225.78;4979167;28;20049;-71
2024/01/18 06:42:08;;;;;;;11.20;6.78;;;;;;;4.89;100.00;94228.88;4967766;28;20045;-73
2024/01/18 06:44:34;;;;;;;21.00;9.52;;;;;;;4.79;100.00;94216.91;4981071;28;20038;-76
2024/01/18 06:47:00;;;;;;;11.73;4.70;;;;;;;4.71;100.00;94226.97;4979402;28;20050;-71
2024/01/18 06:49:26;;;;;;;6.18;4.40;;;;;;;4.81;100.00;94238.19;4976334;28;20038;-72
2024/01/18 06:51:51;;;;;;;10.88;4.60;;;;;;;4.95;100.00;94232.72;4976126;28;20159;-73
2024/01/18 06:54:21;;;;;;;6.32;4.30;;;;;;;5.01;100.00;94244.75;4976326;28;20031;-73
2024/01/18 06:56:47;;;;;;;9.45;4.85;;;;;;;4.98;100.00;94246.28;4981059;28;20042;-72
2024/01/18 06:59:14;;;;;;;8.35;4.50;;;;;;;4.92;100.00;94250.56;4978170;28;20060;-75
2024/01/18 07:01:39;;;;;;;10.05;5.10;;;;;;;4.82;100.00;94259.50;4998844;28;20054;-72
2024/01/18 07:04:05;;;;;;;7.15;4.70;;;;;;;4.77;100.00;94263.38;4976346;28;20468;-75
2024/01/18 07:06:30;;;;;;;6.18;4.47;;;;;;;4.75;100.00;94256.78;4962345;28;20046;-75
2024/01/18 07:08:56;;;;;;;6.13;4.53;;;;;;;4.78;100.00;94253.31;4983059;28;20052;-73
2024/01/18 07:11:21;;;;;;;5.70;3.90;;;;;;;4.78;100.00;94237.03;4976427;28;20139;-74
2024/01/18 07:13:46;;;;;;;5.97;4.18;;;;;;;4.81;100.00;94232.75;4991862;28;20052;-73
2024/01/18 07:16:12;;;;;;;7.55;4.55;;;;;;;4.72;100.00;94231.22;4973318;28;20137;-72
2024/01/18 07:18:37;;;;;;;8.07;5.25;;;;;;;4.53;100.00;94234.34;4968870;28;20050;-74
2024/01/18 07:21:03;;;;;;;9.82;4.93;;;;;;;4.57;100.00;94232.38;4976234;28;20133;-75
2024/01/18 07:23:29;;;;;;;8.50;4.35;;;;;;;4.76;100.00;94232.00;4979370;28;20054;-72
2024/01/18 07:25:54;;;;;;;10.15;5.82;;;;;;;4.84;100.00;94235.47;4979911;28;20042;-72
2024/01/18 07:28:20;;;;;;;7.93;4.82;;;;;;;4.88;100.00;94244.38;4973203;28;20061;-74
2024/01/18 07:30:46;;;;;;;8.60;5.07;;;;;;;4.97;100.00;94246.69;4980080;28;20042;-74
2024/01/18 07:33:12;;;;;;;6.78;4.40;;;;;;;5.15;100.00;94254.81;4975068;28;20051;-72
2024/01/18 07:35:37;;;;;;;6.07;3.55;;;;;;;5.35;100.00;94242.34;4977797;28;20045;-72
2024/01/18 07:38:03;;;;;;;5.85;3.42;;;;;;;5.39;100.00;94249.69;4966337;28;20596;-76
2024/01/18 07:40:28;;;;;;;5.28;3.33;;;;;;;5.34;100.00;94254.34;4980695;28;20129;-73
2024/01/18 07:42:54;;;;;;;4.72;2.85;;;;;;;5.29;100.00;94257.47;4983901;28;20092;-73
2024/01/18 07:45:20;;;;;;;9.63;4.68;;;;;;;5.43;100.00;94267.50;4976864;28;20042;-73
2024/01/18 07:47:46;;;;;;;9.60;5.70;;;;;;;5.40;100.00;94262.84;4983357;28;20146;-73
2024/01/18 07:50:12;;;;;;;8.40;5.60;;;;;;;5.27;100.00;94270.66;4978311;28;20483;-73
2024/01/18 07:52:38;;;;;;;8.63;6.07;;;;;;;5.20;100.00;94273.38;4982408;28;20050;-73
2024/01/18 07:55:06;;;;;;;9.45;6.43;;;;;;;5.19;100.00;94276.50;4979278;28;20046;-73
2024/01/18 07:57:31;;;;;;;9.85;5.43;;;;;;;5.21;100.00;94285.03;4983253;28;20457;-72
2024/01/18 07:59:57;;;;;;;7.07;4.93;;;;;;;5.39;100.00;94279.56;4965956;28;20042;-72
2024/01/18 08:02:22;;;;;;;7.85;4.45;;;;;;;5.39;100.00;94266.75;4962357;28;20137;-72
2024/01/18 08:04:48;;;;;;;7.30;3.70;;;;;;;5.41;100.00;94260.94;4983091;28;20133;-71
2024/01/18 08:07:15;;;;;;;3.25;1.92;;;;;;;5.51;100.00;94251.97;4978307;28;20117;-71
2024/01/18 08:09:41;;;;;;;2.25;1.75;;;;;;;5.53;100.00;94258.56;4981725;28;20042;-71
2024/01/18 08:12:07;;;;;;;3.45;2.05;;;;;;;5.60;100.00;94257.78;4977658;28;20133;-71
2024/01/18 08:14:33;;;;;;;3.38;1.67;;;;;;;5.61;100.00;94253.88;4983288;28;20735;-71
2024/01/18 08:16:58;;;;;;;3.40;1.85;;;;;;;5.72;100.00;94251.13;4982253;28;20123;-71
2024/01/18 08:19:24;;;;;;;2.20;1.60;;;;;;;5.87;100.00;94246.38;4984822;28;20604;-71
2024/01/18 08:21:50;;;;;;;2.90;2.25;;;;;;;6.00;100.00;94244.81;4986768;28;20054;-71
2024/01/18 08:24:15;;;;;;;4.13;2.17;;;;;;;6.03;100.00;94241.31;4977076;28;20042;-72
2024/01/18 08:26:41;;;;;;;9.23;3.78;;;;;;;6.23;100.00;94246.22;4981256;28;20764;-72
2024/01/18 08:29:07;;;;;;;13.68;6.32;;;;;;;6.34;100.00;94244.22;4978051;28;20054;-72
2024/01/18 08:31:32;;;;;;;21.08;7.65;;;;;;;6.48;100.00;94244.09;4989413;28;20060;-71
2024/01/18 08:33:58;;;;;;;5.13;2.53;;;;;;;6.48;100.00;94235.16;4993108;28;20054;-71
2024/01/18 08:36:23;;;;;;;6.40;4.20;;;;;;;6.38;100.00;94244.19;4976068;28;20527;-72
2024/01/18 08:38:49;;;;;;;13.45;8.38;;;;;;;6.48;100.00;94238.66;4990788;28;20069;-70
2024/01/18 08:41:14;;;;;;;9.95;6.47;;;;;;;6.55;100.00;94232.38;4986544;28;20053;-71
2024/01/18 08:43:39;;;;;;;8.15;4.38;;;;;;;6.61;100.00;94232.72;4962386;28;20034;-72
2024/01/18 08:46:07;;;;;;;7.50;3.75;;;;;;;6.61;100.00;94224.56;4980928;28;20099;-70
2024/01/18 08:48:35;;;;;;;7.75;4.00;;;;;;;6.51;100.00;94216.09;4964492;28;20049;-71
2024/01/18 08:51:02;;;;;;;17.25;6.22;;;;;;;6.45;100.00;94225.09;4982582;28;20446;-72
2024/01/18 08:53:27;;;;;;;8.38;4.53;;;;;;;6.35;100.00;94221.28;4993278;28;20054;-71
2024/01/18 08:55:53;;;;;;;11.65;5.28;;;;;;;6.31;100.00;94224.03;4982626;28;20777;-71
2024/01/18 08:58:18;;;;;;;7.95;4.78;;;;;;;6.40;100.00;94223.56;4974435;28;20050;-71
2024/01/18 09:00:43;;;;;;;9.88;6.03;;;;;;;6.49;100.00;94234.75;4985865;28;20046;-72
2024/01/18 09:03:09;;;;;;;10.77;6.53;;;;;;;6.45;100.00;94246.84;4964866;28;20196;-72
2024/01/18 09:05:34;;;;;;;10.50;6.60;;;;;;;6.48;100.00;94229.72;4981239;28;20046;-73
2024/01/18 09:08:00;;;;;;;12.38;8.23;;;;;;;6.44;100.00;94237.13;4980783;28;20185;-72
2024/01/18 09:10:27;;;;;;;13.10;7.40;;;;;;;6.50;100.00;94252.63;4982687;28;20184;-72
2024/01/18 09:12:52;;;;;;;9.05;6.13;;;;;;;6.63;100.00;94266.53;4981475;28;20474;-71
2024/01/18 09:15:18;;;;;;;8.75;5.68;;;;;;;6.77;100.00;94270.28;4975661;28;20137;-72
2024/01/18 09:17:43;;;;;;;7.50;5.60;;;;;;;6.88;100.00;94277.22;4982009;28;20192;-73
2024/01/18 09:20:09;;;;;;;7.95;5.72;;;;;;;6.90;100.00;94274.09;4978191;28;20051;-72
2024/01/18 09:22:34;;;;;;;9.00;5.78;;;;;;;6.98;100.00;94275.56;4981406;28;20039;-73
2024/01/18 09:25:01;;;;;;;8.40;5.88;;;;;;;7.01;100.00;94261.16;4982404;28;20557;-72
2024/01/18 09:27:26;;;;;;;7.50;4.53;;;;;;;6.94;100.00;94258.50;4976221;28;20085;-72
2024/01/18 09:29:52;;;;;;;9.90;4.85;;;;;;;7.04;100.00;94263.06;4980231;28;20042;-72
2024/01/18 09:32:17;;;;;;;7.15;4.80;;;;;;;7.19;100.00;94269.16;4974992;28;20041;-71
2024/01/18 09:34:43;;;;;;;7.85;5.68;;;;;;;7.33;100.00;94262.00;4982343;28;20077;-72
2024/01/18 09:37:08;;;;;;;6.88;4.68;;;;;;;7.32;100.00;94276.81;4976466;28;20124;-72
2024/01/18 09:39:34;;;;;;;8.30;4.78;;;;;;;7.42;100.00;94273.22;4962543;28;20049;-72
2024/01/18 09:42:01;;;;;;;6.28;4.35;;;;;;;7.47;100.00;94278.19;4981594;28;20042;-72
2024/01/18 09:44:31;;;;;;;7.30;3.72;;;;;;;7.53;100.00;94273.88;4975349;28;20181;-72
2024/01/18 09:46:58;;;;;;;9.00;4.05;;;;;;;7.61;100.00;94282.72;4980721;28;20042;-73
2024/01/18 09:49:24;;;;;;;6.50;3.40;;;;;;;7.45;100.00;94278.63;4975266;28;20058;-72
2024/01/18 09:51:50;;;;;;;9.65;4.25;;;;;;;7.51;100.00;94275.44;4980850;28;20053;-72
2024/01/18 09:54:17;;;;;;;6.63;3.83;;;;;;;7.38;100.00;94278.69;4974088;28;20042;-72
2024/01/18 09:56:45;;;;;;;6.38;3.78;;;;;;;7.34;100.00;94280.66;4980524;28;20038;-72
2024/01/18 09:59:16;;;;;;;7.47;3.50;;;;;;;7.41;100.00;94279.81;4958572;28;20049;-73
2024/01/18 10:01:42;;;;;;;6.63;3.22;;;;;;;7.46;100.00;94284.84;4964005;28;20042;-72
2024/01/18 10:04:10;;;;;;;9.27;3.58;;;;;;;7.36;100.00;94272.09;4976169;28;20513;-73
2024/01/18 10:06:38;;;;;;;;;;;;;;;7.43;100.00;94274.75;4996719;28;20140;-72
2024/01/18 10:09:10;;;;;;;5.35;3.35;;;;;;;7.48;100.00;94290.66;4980002;28;19913;-72
2024/01/18 10:11:35;;;;;;;8.82;4.13;;;;;;;7.50;100.00;94301.13;4980897;28;20038;-72
2024/01/18 10:14:02;;;;;;;6.63;3.30;;;;;;;7.33;100.00;94303.66;4980447;28;20045;-72
2024/01/18 10:16:35;;;;;;;7.25;3.72;;;;;;;7.28;100.00;94296.69;4977370;28;20048;-72
2024/01/18 10:19:04;;;;;;;8.18;4.40;;;;;;;7.50;100.00;94298.41;4982693;28;20062;-72
2024/01/18 10:21:31;;;;;;;9.25;4.90;;;;;;;7.47;100.00;94305.44;4981288;28;20060;-74
2024/01/18 10:23:57;;;;;;;7.30;4.10;;;;;;;7.31;100.00;94297.84;4979503;28;20096;-71
2024/01/18 10:26:27;;;;;;;9.13;3.75;;;;;;;7.24;100.00;94298.66;4957813;28;20564;-70
2024/01/18 10:28:52;;;;;;;5.95;3.45;;;;;;;7.20;100.00;94295.22;4962299;28;20449;-71
2024/01/18 10:31:18;;;;;;;6.65;3.25;;;;;;;7.32;100.00;94309.50;4977346;28;20046;-71
2024/01/18 10:33:45;;;;;;;5.72;3.60;;;;;;;7.29;100.00;94311.06;4979384;28;20046;-71
2024/01/18 10:36:10;;;;;;;7.72;3.90;;;;;;;7.44;100.00;94311.72;4975807;28;20405;-72
2024/01/18 10:38:38;;;;;;;6.45;4.55;;;;;;;7.42;100.00;94306.66;4981106;28;20042;-71
2024/01/18 10:41:04;;;;;;;13.00;7.78;;;;;;;7.20;100.00;94303.38;4968177;28;20035;-72
2024/01/18 10:43:32;;;;;;;8.05;4.68;;;;;;;7.22;100.00;94305.66;4978680;28;20445;-73
2024/01/18 10:45:58;;;;;;;8.85;5.88;;;;;;;7.36;100.00;94308.25;4980073;28;20100;-71
2024/01/18 10:48:25;;;;;;;9.18;3.45;;;;;;;7.39;100.00;94298.53;4974454;28;20038;-72
2024/01/18 10:50:53;;;;;;;6.28;4.38;;;;;;;7.44;100.00;94300.81;4980538;28;20482;-71
2024/01/18 10:53:24;;;;;;;8.45;3.97;;;;;;;7.43;100.00;94302.75;4976477;28;20061;-71
2024/01/18 10:55:51;;;;;;;5.25;3.75;;;;;;;7.42;100.00;94298.50;4980044;28;20516;-72
2024/01/18 10:58:16;;;;;;;5.30;3.40;;;;;;;7.55;100.00;94296.03;4956237;28;20206;-72
2024/01/18 11:00:42;;;;;;;5.72;3.42;;;;;;;7.69;100.00;94284.19;4979822;28;20509;-72
2024/01/18 11:03:12;;;;;;;7.25;3.75;;;;;;;7.61;100.00;94297.09;4973964;28;20042;-71
2024/01/18 11:05:40;;;;;;;4.97;3.80;;;;;;;7.55;100.00;94297.97;4978634;28;20102;-72
2024/01/18 11:08:06;;;;;;;6.25;2.78;;;;;;;7.76;100.00;94303.19;4955528;28;20042;-71
2024/01/18 11:10:32;;;;;;;5.30;3.15;;;;;;;7.74;100.00;94299.31;4979251;28;20426;-72
2024/01/18 11:12:58;;;;;;;6.50;3.75;;;;;;;7.71;100.00;94294.69;4977808;28;20053;-71
2024/01/18 11:15:24;;;;;;;6.50;3.70;;;;;;;7.65;100.00;94300.59;4973635;28;20270;-71
2024/01/18 11:17:51;;;;;;;15.32;6.28;;;;;;;7.82;100.00;94295.34;4989755;28;20826;-73
2024/01/18 11:20:18;;;;;;;9.65;5.40;;;;;;;7.77;100.00;94290.34;4990923;28;20046;-72
2024/01/18 11:22:45;;;;;;;4.50;2.83;;;;;;;7.64;100.00;94290.84;4995202;28;20049;-72
2024/01/18 11:25:18;;;;;;;7.15;3.78;;;;;;;7.72;100.00;94296.22;4988006;28;20294;-72
2024/01/18 11:27:43;;;;;;;6.50;2.97;;;;;;;7.72;100.00;94305.16;4987097;28;20073;-72